createdAt,value
2022-07-29T00:01:44.071Z,99525.72
2022-07-29T00:04:12.294Z,99525.19
2022-07-29T00:06:40.143Z,99523.56
2022-07-29T00:09:07.768Z,99516.94
2022-07-29T00:11:35.542Z,99521.72
2022-07-29T00:14:03.255Z,99517.94
2022-07-29T00:16:30.790Z,99528.59
2022-07-29T00:19:01.858Z,99526.94
2022-07-29T00:21:29.963Z,99526.94
2022-07-29T00:23:57.810Z,99519.69
2022-07-29T00:26:25.398Z,99528.41
2022-07-29T00:29:02.024Z,99530.50
2022-07-29T00:31:40.661Z,99520.56
2022-07-29T00:34:28.149Z,99523.50
2022-07-29T00:36:56.093Z,99521.09
2022-07-29T00:39:23.779Z,99526.00
2022-07-29T00:41:51.370Z,99531.72
2022-07-29T00:44:19.120Z,99524.03
2022-07-29T00:46:46.709Z,99531.38
2022-07-29T00:49:14.314Z,99526.31
2022-07-29T00:51:42.242Z,99524.41
2022-07-29T00:54:09.766Z,99524.72
2022-07-29T00:56:37.287Z,99520.69
2022-07-29T00:59:05.101Z,99527.84
2022-07-29T01:01:32.679Z,99526.59
2022-07-29T01:04:00.437Z,99520.91
2022-07-29T01:06:28.230Z,99523.16
2022-07-29T01:08:56.275Z,99512.69
2022-07-29T01:11:24.013Z,99516.31
2022-07-29T01:13:52.783Z,99517.97
2022-07-29T01:16:31.318Z,99514.66
2022-07-29T01:19:08.704Z,99515.38
2022-07-29T01:21:53.024Z,99511.66
2022-07-29T01:24:25.790Z,99519.81
2022-07-29T01:27:11.496Z,99523.41
2022-07-29T01:29:48.957Z,99514.47
2022-07-29T01:32:28.129Z,99509.62
2022-07-29T01:35:32.114Z,99509.97
2022-07-29T01:38:09.620Z,99515.91
2022-07-29T01:40:43.987Z,99507.03
2022-07-29T01:43:15.610Z,99509.72
2022-07-29T01:45:48.073Z,99510.09
2022-07-29T01:48:32.244Z,99507.03
2022-07-29T01:51:46.519Z,99501.25
2022-07-29T01:54:20.257Z,99510.25
2022-07-29T01:56:50.230Z,99508.09
2022-07-29T01:59:19.557Z,99508.47
2022-07-29T02:01:49.691Z,99500.75
2022-07-29T02:04:28.926Z,99502.66
2022-07-29T02:07:04.033Z,99510.53
2022-07-29T02:09:33.046Z,99515.69
2022-07-29T02:12:02.342Z,99506.84
2022-07-29T02:14:34.444Z,99510.03
2022-07-29T02:17:03.417Z,99500.38
2022-07-29T02:19:33.195Z,99503.59
2022-07-29T02:22:01.897Z,99500.31
2022-07-29T02:24:31.840Z,99495.25
2022-07-29T02:27:01.115Z,99492.75
2022-07-29T02:29:29.905Z,99495.50
2022-07-29T02:31:58.971Z,99498.72
2022-07-29T02:34:26.966Z,99498.72
2022-07-29T02:36:55.585Z,99495.72
2022-07-29T02:39:24.409Z,99489.28
2022-07-29T02:41:55.630Z,99497.66
2022-07-29T02:44:28.102Z,99485.69
2022-07-29T02:47:22.086Z,99492.13
2022-07-29T02:49:58.958Z,99492.00
2022-07-29T02:52:36.361Z,99490.19
2022-07-29T02:55:17.842Z,99491.59
2022-07-29T02:57:59.054Z,99490.41
2022-07-29T03:00:29.200Z,99493.41
2022-07-29T03:03:00.698Z,99489.31
2022-07-29T03:05:28.662Z,99490.56
2022-07-29T03:08:01.730Z,99484.44
2022-07-29T03:10:29.704Z,99491.09
2022-07-29T03:12:57.803Z,99489.84
2022-07-29T03:15:27.273Z,99499.34
2022-07-29T03:17:56.584Z,99493.56
2022-07-29T03:20:24.122Z,99487.19
2022-07-29T03:22:51.973Z,99490.56
2022-07-29T03:25:20.832Z,99494.38
2022-07-29T03:27:49.581Z,99491.72
2022-07-29T03:30:18.343Z,99497.34
2022-07-29T03:32:52.191Z,99493.56
2022-07-29T03:35:21.011Z,99495.03
2022-07-29T03:37:48.572Z,99495.56
2022-07-29T03:40:24.476Z,99496.00
2022-07-29T03:42:52.981Z,99493.78
2022-07-29T03:45:20.859Z,99501.56
2022-07-29T03:48:00.381Z,99503.56
2022-07-29T03:50:30.974Z,99501.34
2022-07-29T03:52:58.555Z,99506.78
2022-07-29T03:55:27.615Z,99494.12
2022-07-29T03:57:56.879Z,99496.88
2022-07-29T04:00:25.458Z,99503.88
2022-07-29T04:02:53.346Z,99503.28
2022-07-29T04:05:20.866Z,99507.69
2022-07-29T04:07:49.129Z,99509.44
2022-07-29T04:10:18.041Z,99511.66
2022-07-29T04:12:57.897Z,99505.78
2022-07-29T04:15:25.985Z,99511.19
2022-07-29T04:17:58.428Z,99509.06
2022-07-29T04:20:26.791Z,99507.41
2022-07-29T04:22:54.249Z,99513.37
2022-07-29T04:25:21.793Z,99511.34
2022-07-29T04:28:15.602Z,99511.91
2022-07-29T04:30:44.632Z,99507.31
2022-07-29T04:33:13.032Z,99508.53
2022-07-29T04:35:45.783Z,99517.59
2022-07-29T04:38:20.095Z,99517.47
2022-07-29T04:40:47.709Z,99511.34
2022-07-29T04:43:22.778Z,99509.53
2022-07-29T04:45:51.369Z,99517.44
2022-07-29T04:48:18.933Z,99507.88
2022-07-29T04:50:46.402Z,99505.50
2022-07-29T04:53:14.161Z,99510.34
2022-07-29T04:55:41.628Z,99516.66
2022-07-29T04:58:09.181Z,99510.91
2022-07-29T05:00:37.283Z,99511.63
2022-07-29T05:03:04.930Z,99514.09
2022-07-29T05:05:32.477Z,99511.25
2022-07-29T05:08:00.269Z,99517.97
2022-07-29T05:10:27.941Z,99516.47
2022-07-29T05:12:55.391Z,99514.66
2022-07-29T05:15:23.280Z,99516.94
2022-07-29T05:17:50.891Z,99522.28
2022-07-29T05:20:19.791Z,99507.94
2022-07-29T05:22:47.547Z,99511.69
2022-07-29T05:25:15.067Z,99517.94
2022-07-29T05:27:42.570Z,99514.19
2022-07-29T05:30:10.791Z,99512.22
2022-07-29T05:32:38.276Z,99513.59
2022-07-29T05:35:06.289Z,99516.56
2022-07-29T05:37:34.385Z,99512.66
2022-07-29T05:40:02.678Z,99511.25
2022-07-29T05:42:30.329Z,99516.59
2022-07-29T05:44:58.130Z,99515.91
2022-07-29T05:47:25.635Z,99519.44
2022-07-29T05:49:53.478Z,99523.13
2022-07-29T05:52:22.026Z,99516.00
2022-07-29T05:54:49.535Z,99523.72
2022-07-29T05:57:21.955Z,99530.28
2022-07-29T05:59:50.583Z,99526.63
2022-07-29T06:02:18.355Z,99527.56
2022-07-29T06:04:46.334Z,99525.31
2022-07-29T06:07:14.102Z,99533.34
2022-07-29T06:09:41.629Z,99527.22
2022-07-29T06:12:09.878Z,99529.28
2022-07-29T06:14:38.947Z,99528.56
2022-07-29T06:17:06.833Z,99527.22
2022-07-29T06:19:37.521Z,99537.72
2022-07-29T06:22:05.319Z,99540.00
2022-07-29T06:24:32.858Z,99535.13
2022-07-29T06:27:00.708Z,99530.41
2022-07-29T06:29:28.227Z,99534.25
2022-07-29T06:31:55.722Z,99532.06
2022-07-29T06:34:23.534Z,99539.06
2022-07-29T06:36:51.034Z,99527.38
2022-07-29T06:39:20.238Z,99541.88
2022-07-29T06:41:50.152Z,99547.75
2022-07-29T06:44:18.989Z,99551.16
2022-07-29T06:46:50.163Z,99547.59
2022-07-29T06:49:18.206Z,99556.41
2022-07-29T06:51:45.818Z,99554.94
2022-07-29T06:54:13.564Z,99548.53
2022-07-29T06:56:42.767Z,99550.06
2022-07-29T06:59:12.270Z,99554.62
2022-07-29T07:01:42.085Z,99556.78
2022-07-29T07:04:10.397Z,99551.66
2022-07-29T07:06:38.730Z,99550.31
2022-07-29T07:09:06.321Z,99548.03
2022-07-29T07:11:34.145Z,99550.50
2022-07-29T07:14:14.417Z,99540.91
2022-07-29T07:16:42.329Z,99549.84
2022-07-29T07:19:09.907Z,99548.72
2022-07-29T07:21:37.624Z,99552.84
2022-07-29T07:24:05.935Z,99548.81
2022-07-29T07:26:33.551Z,99552.63
2022-07-29T07:29:01.440Z,99549.91
2022-07-29T07:31:29.282Z,99548.34
2022-07-29T07:33:56.992Z,99548.22
2022-07-29T07:36:25.511Z,99545.47
2022-07-29T07:38:53.425Z,99548.25
2022-07-29T07:41:21.782Z,99542.03
2022-07-29T07:43:49.569Z,99535.66
2022-07-29T07:46:17.740Z,99543.16
2022-07-29T07:48:45.415Z,99536.75
2022-07-29T07:51:12.979Z,99532.28
2022-07-29T07:53:40.830Z,99537.91
2022-07-29T07:56:11.078Z,99529.41
2022-07-29T07:58:40.029Z,99545.38
2022-07-29T08:01:08.646Z,99538.13
2022-07-29T08:03:36.500Z,99537.28
2022-07-29T08:06:04.883Z,99547.94
2022-07-29T08:08:32.442Z,99532.69
2022-07-29T08:11:08.337Z,99531.97
2022-07-29T08:13:38.704Z,99530.53
2022-07-29T08:16:14.169Z,99529.00
2022-07-29T08:18:42.947Z,99528.81
2022-07-29T08:21:10.811Z,99532.41
2022-07-29T08:23:52.802Z,99533.47
2022-07-29T08:26:25.753Z,99525.28
2022-07-29T08:28:53.231Z,99527.87
2022-07-29T08:31:20.706Z,99533.88
2022-07-29T08:33:48.490Z,99531.31
2022-07-29T08:36:15.962Z,99524.47
2022-07-29T08:38:43.522Z,99520.00
2022-07-29T08:41:11.393Z,99526.06
2022-07-29T08:43:41.905Z,99521.03
2022-07-29T08:46:09.561Z,99526.00
2022-07-29T08:48:37.773Z,99528.78
2022-07-29T08:51:06.353Z,99520.78
2022-07-29T08:53:34.225Z,99516.75
2022-07-29T08:56:02.902Z,99514.09
2022-07-29T08:58:33.399Z,99522.59
2022-07-29T09:01:04.818Z,99517.50
2022-07-29T09:03:37.199Z,99515.69
2022-07-29T09:06:05.607Z,99513.69
2022-07-29T09:08:33.757Z,99506.63
2022-07-29T09:11:05.614Z,99516.19
2022-07-29T09:13:33.592Z,99518.13
2022-07-29T09:16:05.655Z,99517.69
2022-07-29T09:18:41.707Z,99514.63
2022-07-29T09:21:29.589Z,99509.06
2022-07-29T09:24:07.645Z,99508.97
2022-07-29T09:26:40.536Z,99516.66
2022-07-29T09:29:13.785Z,99504.44
2022-07-29T09:31:47.019Z,99507.03
2022-07-29T09:34:17.637Z,99496.78
2022-07-29T09:36:49.523Z,99493.19
2022-07-29T09:39:28.370Z,99494.31
2022-07-29T09:41:58.231Z,99493.78
2022-07-29T09:44:26.890Z,99487.41
2022-07-29T09:47:08.227Z,99484.69
2022-07-29T09:49:37.475Z,99486.97
2022-07-29T09:52:07.928Z,99486.09
2022-07-29T09:54:39.642Z,99470.97
2022-07-29T09:57:09.980Z,99475.37
2022-07-29T09:59:37.790Z,99481.41
2022-07-29T10:02:23.718Z,99474.59
2022-07-29T10:04:52.087Z,99474.31
2022-07-29T10:07:20.320Z,99465.69
2022-07-29T10:09:55.570Z,99470.41
2022-07-29T10:12:23.685Z,99471.66
2022-07-29T10:14:52.194Z,99467.34
2022-07-29T10:17:20.248Z,99470.72
2022-07-29T10:19:48.218Z,99463.16
2022-07-29T10:22:31.182Z,99469.25
2022-07-29T10:25:04.145Z,99452.44
2022-07-29T10:27:32.993Z,99463.19
2022-07-29T10:30:00.597Z,99470.03
2022-07-29T10:33:08.643Z,99456.44
2022-07-29T10:35:54.522Z,99449.91
2022-07-29T10:39:00.605Z,99455.38
2022-07-29T10:41:49.750Z,99448.66
2022-07-29T10:44:23.018Z,99442.59
2022-07-29T10:46:52.820Z,99447.44
2022-07-29T10:49:24.889Z,99441.78
2022-07-29T10:52:06.023Z,99435.84
2022-07-29T10:54:37.194Z,99444.50
2022-07-29T10:57:17.033Z,99437.69
2022-07-29T10:59:46.551Z,99436.13
2022-07-29T11:02:41.400Z,99435.84
2022-07-29T11:05:21.887Z,99439.66
2022-07-29T11:08:19.550Z,99432.25
2022-07-29T11:10:49.667Z,99425.97
2022-07-29T11:13:43.010Z,99414.50
2022-07-29T11:16:11.257Z,99422.69
2022-07-29T11:19:14.327Z,99429.59
2022-07-29T11:21:55.052Z,99419.47
2022-07-29T11:24:29.075Z,99418.16
2022-07-29T11:27:14.275Z,99403.09
2022-07-29T11:29:54.897Z,99407.28
2022-07-29T11:32:25.480Z,99404.53
2022-07-29T11:35:17.313Z,99393.66
2022-07-29T11:37:52.747Z,99394.13
2022-07-29T11:40:23.487Z,99395.09
2022-07-29T11:42:52.177Z,99396.19
2022-07-29T11:45:41.557Z,99391.16
2022-07-29T11:51:10.834Z,99383.94
2022-07-29T11:53:40.452Z,99394.78
2022-07-29T11:56:10.345Z,99392.88
2022-07-29T11:58:38.427Z,99383.00
2022-07-29T12:01:07.310Z,99379.25
2022-07-29T12:06:23.368Z,99376.13
2022-07-29T12:08:51.226Z,99383.63
2022-07-29T12:11:21.735Z,99383.75
2022-07-29T12:13:52.113Z,99381.53
2022-07-29T12:16:28.106Z,99378.72
2022-07-29T12:19:02.344Z,99373.19
2022-07-29T12:21:57.022Z,99367.94
2022-07-29T12:24:27.566Z,99367.00
2022-07-29T12:26:57.275Z,99366.69
2022-07-29T12:29:35.329Z,99360.56
2022-07-29T12:32:14.402Z,99357.34
2022-07-29T12:34:42.687Z,99349.00
2022-07-29T12:37:11.961Z,99341.06
2022-07-29T12:39:40.014Z,99348.28
2022-07-29T12:42:18.627Z,99335.81
2022-07-29T12:44:50.388Z,99344.13
2022-07-29T12:47:19.224Z,99333.50
2022-07-29T12:49:48.056Z,99331.16
2022-07-29T12:52:32.993Z,99334.47
2022-07-29T12:55:01.899Z,99327.03
2022-07-29T12:57:30.193Z,99323.25
2022-07-29T13:00:08.936Z,99318.47
2022-07-29T13:02:38.061Z,99327.34
2022-07-29T13:05:07.259Z,99330.09
2022-07-29T13:07:53.956Z,99317.19
2022-07-29T13:10:24.449Z,99314.37
2022-07-29T13:13:12.077Z,99313.88
2022-07-29T13:15:42.998Z,99312.72
2022-07-29T13:18:29.777Z,99310.34
2022-07-29T13:20:58.395Z,99300.78
2022-07-29T13:23:25.866Z,99309.19
2022-07-29T13:25:53.360Z,99307.81
2022-07-29T13:28:23.083Z,99302.72
2022-07-29T13:30:50.634Z,99286.94
2022-07-29T13:33:18.155Z,99285.63
2022-07-29T13:35:46.024Z,99287.91
2022-07-29T13:38:13.578Z,99288.56
2022-07-29T13:40:42.332Z,99290.94
2022-07-29T13:43:11.010Z,99294.09
2022-07-29T13:45:38.797Z,99288.31
2022-07-29T13:48:07.308Z,99277.00
2022-07-29T13:50:35.133Z,99277.94
2022-07-29T13:53:02.702Z,99280.56
2022-07-29T13:55:30.490Z,99278.06
2022-07-29T13:57:58.283Z,99277.56
2022-07-29T14:00:27.150Z,99271.41
2022-07-29T14:02:55.035Z,99275.97
2022-07-29T14:05:22.513Z,99271.38
2022-07-29T14:07:49.979Z,99270.03
2022-07-29T14:10:20.142Z,99275.72
2022-07-29T14:12:47.904Z,99269.37
2022-07-29T14:15:15.349Z,99253.78
2022-07-29T14:17:43.116Z,99262.37
2022-07-29T14:20:10.869Z,99252.47
2022-07-29T14:22:42.472Z,99255.75
2022-07-29T14:25:14.459Z,99259.09
2022-07-29T14:27:43.970Z,99254.09
2022-07-29T14:30:12.365Z,99253.03
2022-07-29T14:32:39.906Z,99249.72
2022-07-29T14:35:08.838Z,99246.94
2022-07-29T14:37:40.391Z,99244.47
2022-07-29T14:40:09.859Z,99238.00
2022-07-29T14:42:38.637Z,99240.72
2022-07-29T14:45:07.483Z,99234.06
2022-07-29T14:47:35.568Z,99228.50
2022-07-29T14:50:05.240Z,99227.16
2022-07-29T14:52:32.992Z,99229.28
2022-07-29T14:55:00.547Z,99224.22
2022-07-29T14:57:28.320Z,99220.06
2022-07-29T14:59:55.900Z,99219.47
2022-07-29T15:02:25.642Z,99214.84
2022-07-29T15:05:03.958Z,99218.06
2022-07-29T15:07:31.535Z,99210.84
2022-07-29T15:09:59.788Z,99203.75
2022-07-29T15:12:27.593Z,99202.56
2022-07-29T15:14:55.218Z,99199.00
2022-07-29T15:17:22.880Z,99199.47
2022-07-29T15:19:50.625Z,99200.84
2022-07-29T15:22:18.197Z,99194.41
2022-07-29T15:24:45.788Z,99197.19
2022-07-29T15:27:15.119Z,99194.59
2022-07-29T15:29:43.427Z,99194.91
2022-07-29T15:32:11.500Z,99191.44
2022-07-29T15:34:39.472Z,99188.78
2022-07-29T15:37:06.997Z,99191.16
2022-07-29T15:39:34.633Z,99185.41
2022-07-29T15:42:03.588Z,99191.31
2022-07-29T15:44:31.306Z,99181.62
2022-07-29T15:47:05.704Z,99180.94
2022-07-29T15:49:47.496Z,99187.50
2022-07-29T15:52:25.206Z,99185.69
2022-07-29T15:54:55.971Z,99187.13
2022-07-29T15:57:24.503Z,99182.06
2022-07-29T15:59:52.518Z,99179.28
2022-07-29T16:02:20.665Z,99179.28
2022-07-29T16:04:48.729Z,99178.69
2022-07-29T16:07:16.841Z,99173.84
2022-07-29T16:09:49.240Z,99181.41
2022-07-29T16:12:18.778Z,99172.84
2022-07-29T16:14:49.302Z,99179.31
2022-07-29T16:17:17.198Z,99173.38
2022-07-29T16:19:45.549Z,99176.00
2022-07-29T16:22:14.003Z,99171.09
2022-07-29T16:24:41.792Z,99167.91
2022-07-29T16:27:09.711Z,99168.84
2022-07-29T16:29:37.505Z,99174.34
2022-07-29T16:32:06.146Z,99169.47
2022-07-29T16:34:34.195Z,99173.97
2022-07-29T16:37:02.087Z,99163.66
2022-07-29T16:39:29.759Z,99166.66
2022-07-29T16:42:00.864Z,99158.84
2022-07-29T16:44:29.913Z,99164.88
2022-07-29T16:46:58.926Z,99155.28
2022-07-29T16:49:27.701Z,99154.03
2022-07-29T16:51:55.288Z,99155.19
2022-07-29T16:54:23.162Z,99163.81
2022-07-29T16:56:50.719Z,99158.38
2022-07-29T16:59:18.514Z,99160.91
2022-07-29T17:01:46.329Z,99160.84
2022-07-29T17:04:15.160Z,99158.88
2022-07-29T17:06:42.791Z,99159.44
2022-07-29T17:09:11.954Z,99163.94
2022-07-29T17:11:53.865Z,99157.78
2022-07-29T17:14:27.015Z,99163.63
2022-07-29T17:17:01.092Z,99167.53
2022-07-29T17:19:35.216Z,99168.94
2022-07-29T17:22:13.020Z,99166.16
2022-07-29T17:24:48.515Z,99163.97
2022-07-29T17:27:16.279Z,99163.13
2022-07-29T17:29:43.773Z,99161.81
2022-07-29T17:32:11.810Z,99164.31
2022-07-29T17:34:40.687Z,99164.59
2022-07-29T17:37:09.714Z,99161.81
2022-07-29T17:39:41.770Z,99163.53
2022-07-29T17:42:10.534Z,99158.53
2022-07-29T17:44:39.116Z,99163.59
2022-07-29T17:47:10.660Z,99164.72
2022-07-29T17:49:45.246Z,99153.94
2022-07-29T17:52:12.976Z,99160.59
2022-07-29T17:54:40.567Z,99166.47
2022-07-29T17:57:08.803Z,99170.97
2022-07-29T17:59:36.808Z,99171.84
2022-07-29T18:02:04.426Z,99164.41
2022-07-29T18:04:32.329Z,99177.50
2022-07-29T18:07:00.216Z,99176.13
2022-07-29T18:09:28.072Z,99178.91
2022-07-29T18:11:56.017Z,99180.56
2022-07-29T18:14:23.704Z,99174.53
2022-07-29T18:16:51.334Z,99178.16
2022-07-29T18:19:19.166Z,99180.31
2022-07-29T18:21:53.955Z,99178.41
2022-07-29T18:24:25.397Z,99177.00
2022-07-29T18:26:53.863Z,99184.22
2022-07-29T18:29:21.807Z,99178.94
2022-07-29T18:31:50.108Z,99178.37
2022-07-29T18:34:17.914Z,99182.81
2022-07-29T18:36:45.932Z,99187.28
2022-07-29T18:39:19.671Z,99186.72
2022-07-29T18:41:51.827Z,99187.22
2022-07-29T18:44:22.080Z,99186.09
2022-07-29T18:46:52.210Z,99194.91
2022-07-29T18:49:20.338Z,99197.41
2022-07-29T18:51:49.218Z,99195.16
2022-07-29T18:54:17.649Z,99205.41
2022-07-29T18:56:48.252Z,99197.25
2022-07-29T18:59:17.206Z,99193.13
2022-07-29T19:01:45.329Z,99194.44
2022-07-29T19:04:13.198Z,99197.16
2022-07-29T19:06:41.029Z,99206.59
2022-07-29T19:09:09.174Z,99199.66
2022-07-29T19:11:37.736Z,99209.91
2022-07-29T19:14:06.104Z,99214.97
2022-07-29T19:16:34.061Z,99218.97
2022-07-29T19:19:01.664Z,99222.69
2022-07-29T19:21:29.332Z,99215.69
2022-07-29T19:24:00.408Z,99215.84
2022-07-29T19:26:38.636Z,99221.81
2022-07-29T19:29:06.535Z,99221.28
2022-07-29T19:31:34.142Z,99213.44
2022-07-29T19:34:01.719Z,99220.66
2022-07-29T19:36:30.657Z,99221.84
2022-07-29T19:38:58.253Z,99218.84
2022-07-29T19:41:25.863Z,99221.59
2022-07-29T19:43:54.393Z,99213.56
2022-07-29T19:46:22.588Z,99217.28
2022-07-29T19:48:50.612Z,99213.97
2022-07-29T19:51:18.485Z,99217.81
2022-07-29T19:53:46.013Z,99214.50
2022-07-29T19:56:13.844Z,99214.41
2022-07-29T19:58:44.156Z,99206.66
2022-07-29T20:01:12.833Z,99216.31
2022-07-29T20:03:40.753Z,99210.53
2022-07-29T20:06:08.611Z,99209.97
2022-07-29T20:08:36.525Z,99208.53
2022-07-29T20:11:04.621Z,99202.13
2022-07-29T20:13:33.690Z,99197.12
2022-07-29T20:16:02.097Z,99201.53
2022-07-29T20:18:29.916Z,99208.37
2022-07-29T20:20:57.701Z,99203.13
2022-07-29T20:23:28.158Z,99203.69
2022-07-29T20:26:01.383Z,99210.97
2022-07-29T20:28:28.901Z,99211.56
2022-07-29T20:30:56.555Z,99215.06
2022-07-29T20:33:24.509Z,99211.41
2022-07-29T20:35:52.089Z,99211.91
2022-07-29T20:38:19.639Z,99219.09
2022-07-29T20:40:47.470Z,99214.41
2022-07-29T20:43:15.001Z,99227.69
2022-07-29T20:45:42.517Z,99223.28
2022-07-29T20:48:10.653Z,99225.75
2022-07-29T20:50:38.175Z,99228.50
2022-07-29T20:53:05.694Z,99228.78
2022-07-29T20:55:33.615Z,99230.66
2022-07-29T20:58:01.211Z,99244.19
2022-07-29T21:00:28.862Z,99250.16
2022-07-29T21:02:57.516Z,99247.97
2022-07-29T21:05:25.162Z,99248.91
2022-07-29T21:07:56.603Z,99258.44
2022-07-29T21:10:25.952Z,99254.44
2022-07-29T21:12:53.444Z,99244.06
2022-07-29T21:15:21.906Z,99249.31
2022-07-29T21:17:51.981Z,99256.06
2022-07-29T21:20:19.789Z,99250.09
2022-07-29T21:22:47.347Z,99253.00
2022-07-29T21:25:15.284Z,99252.06
2022-07-29T21:28:01.495Z,99256.78
2022-07-29T21:30:29.267Z,99264.69
2022-07-29T21:32:56.912Z,99267.56
2022-07-29T21:35:45.282Z,99268.34
2022-07-29T21:38:16.328Z,99267.88
2022-07-29T21:40:47.933Z,99272.34
2022-07-29T21:43:16.300Z,99269.81
2022-07-29T21:45:44.145Z,99277.53
2022-07-29T21:48:11.696Z,99269.31
2022-07-29T21:50:39.695Z,99274.59
2022-07-29T21:53:07.251Z,99274.69
2022-07-29T21:55:38.042Z,99280.28
2022-07-29T21:58:06.146Z,99271.84
2022-07-29T22:00:36.778Z,99274.28
2022-07-29T22:03:05.443Z,99269.44
2022-07-29T22:05:32.990Z,99272.13
2022-07-29T22:08:00.791Z,99283.81
2022-07-29T22:10:29.758Z,99283.13
2022-07-29T22:12:58.963Z,99279.88
2022-07-29T22:15:27.274Z,99279.34
2022-07-29T22:17:55.049Z,99288.81
2022-07-29T22:20:22.729Z,99284.06
2022-07-29T22:22:50.350Z,99279.94
2022-07-29T22:25:18.258Z,99283.03
2022-07-29T22:27:45.848Z,99281.62
2022-07-29T22:30:13.610Z,99288.25
2022-07-29T22:32:41.440Z,99281.47
2022-07-29T22:35:08.975Z,99280.97
2022-07-29T22:37:36.881Z,99294.63
2022-07-29T22:40:05.328Z,99277.22
2022-07-29T22:42:33.776Z,99275.53
2022-07-29T22:45:01.467Z,99273.56
2022-07-29T22:47:46.434Z,99280.16
2022-07-29T22:50:17.133Z,99275.53
2022-07-29T22:52:45.961Z,99274.63
2022-07-29T22:55:13.958Z,99272.56
2022-07-29T22:57:41.615Z,99279.22
2022-07-29T23:00:10.394Z,99273.41
2022-07-29T23:02:38.233Z,99280.81
2022-07-29T23:05:06.673Z,99282.75
2022-07-29T23:07:34.889Z,99279.00
2022-07-29T23:10:02.743Z,99267.63
2022-07-29T23:12:30.930Z,99264.66
2022-07-29T23:14:58.693Z,99265.25
2022-07-29T23:17:26.164Z,99260.84
2022-07-29T23:19:53.680Z,99260.72
2022-07-29T23:22:21.417Z,99257.84
2022-07-29T23:24:48.909Z,99253.03
2022-07-29T23:27:16.385Z,99246.87
2022-07-29T23:29:44.139Z,99244.06
2022-07-29T23:32:11.624Z,99249.25
2022-07-29T23:34:39.108Z,99235.16
2022-07-29T23:37:07.358Z,99241.25
2022-07-29T23:39:34.853Z,99238.19
2022-07-29T23:42:02.683Z,99243.94
2022-07-29T23:44:30.441Z,99241.28
2022-07-29T23:46:58.206Z,99232.47
2022-07-29T23:49:25.994Z,99226.97
2022-07-29T23:51:53.714Z,99225.91
2022-07-29T23:54:21.172Z,99225.22
2022-07-29T23:56:48.655Z,99219.25
2022-07-29T23:59:16.472Z,99229.31
